sensor_id;sensor_type;location;lat;lon;timestamp;pressure;altitude;pressure_sealevel;temperature;humidity
49397;BME280;35615;41.410;2.194;2023-11-21T00:00:03;101397.59;;;19.87;53.13
49397;BME280;35615;41.410;2.194;2023-11-21T00:02:38;101397.41;;;19.70;53.59
49397;BME280;35615;41.410;2.194;2023-11-21T00:05:10;101389.75;;;19.90;52.95
49397;BME280;35615;41.410;2.194;2023-11-21T00:07:38;101388.09;;;20.00;52.56
49397;BME280;35615;41.410;2.194;2023-11-21T00:10:08;101388.13;;;20.06;52.42
49397;BME280;35615;41.410;2.194;2023-11-21T00:12:37;101375.06;;;20.09;52.60
49397;BME280;35615;41.410;2.194;2023-11-21T00:15:05;101370.72;;;20.13;52.18
49397;BME280;35615;41.410;2.194;2023-11-21T00:17:40;101368.06;;;20.07;52.65
49397;BME280;35615;41.410;2.194;2023-11-21T00:20:09;101370.72;;;20.13;52.29
49397;BME280;35615;41.410;2.194;2023-11-21T00:22:44;101359.38;;;20.17;52.52
49397;BME280;35615;41.410;2.194;2023-11-21T00:25:13;101356.88;;;20.29;52.09
49397;BME280;35615;41.410;2.194;2023-11-21T00:27:42;101350.81;;;20.38;52.00
49397;BME280;35615;41.410;2.194;2023-11-21T00:30:16;101343.72;;;20.24;52.29
49397;BME280;35615;41.410;2.194;2023-11-21T00:32:44;101340.22;;;20.24;52.20
49397;BME280;35615;41.410;2.194;2023-11-21T00:35:12;101341.94;;;20.19;52.53
49397;BME280;35615;41.410;2.194;2023-11-21T00:37:40;101335.66;;;20.03;52.75
49397;BME280;35615;41.410;2.194;2023-11-21T00:40:13;101336.53;;;20.00;52.81
49397;BME280;35615;41.410;2.194;2023-11-21T00:42:43;101335.69;;;20.06;52.71
49397;BME280;35615;41.410;2.194;2023-11-21T00:45:11;101332.91;;;19.88;53.39
49397;BME280;35615;41.410;2.194;2023-11-21T00:47:39;101328.59;;;19.94;53.03
49397;BME280;35615;41.410;2.194;2023-11-21T00:50:09;101320.59;;;19.81;53.52
49397;BME280;35615;41.410;2.194;2023-11-21T00:52:38;101326.00;;;19.97;52.99
49397;BME280;35615;41.410;2.194;2023-11-21T00:55:05;101323.50;;;20.13;52.50
49397;BME280;35615;41.410;2.194;2023-11-21T00:57:35;101324.38;;;20.12;52.67
49397;BME280;35615;41.410;2.194;2023-11-21T01:03:39;101315.69;;;20.19;52.34
49397;BME280;35615;41.410;2.194;2023-11-21T01:06:15;101312.31;;;20.34;52.24
49397;BME280;35615;41.410;2.194;2023-11-21T01:09:03;101310.56;;;20.37;52.44
49397;BME280;35615;41.410;2.194;2023-11-21T01:11:45;101317.66;;;20.46;52.06
49397;BME280;35615;41.410;2.194;2023-11-21T01:14:31;101316.78;;;20.42;52.32
49397;BME280;35615;41.410;2.194;2023-11-21T01:17:29;101312.41;;;20.44;52.21
49397;BME280;35615;41.410;2.194;2023-11-21T01:19:57;101303.66;;;20.42;51.90
49397;BME280;35615;41.410;2.194;2023-11-21T01:22:29;101299.19;;;20.38;52.02
49397;BME280;35615;41.410;2.194;2023-11-21T01:25:10;101299.16;;;20.29;52.40
49397;BME280;35615;41.410;2.194;2023-11-21T01:28:00;101292.97;;;20.22;52.44
49397;BME280;35615;41.410;2.194;2023-11-21T01:30:43;101295.41;;;19.96;53.45
49397;BME280;35615;41.410;2.194;2023-11-21T01:33:17;101294.47;;;19.90;53.38
49397;BME280;35615;41.410;2.194;2023-11-21T01:35:58;101291.94;;;20.02;53.20
49397;BME280;35615;41.410;2.194;2023-11-21T01:38:37;101287.47;;;19.87;54.45
49397;BME280;35615;41.410;2.194;2023-11-21T01:41:24;101281.44;;;20.02;53.57
49397;BME280;35615;41.410;2.194;2023-11-21T01:44:01;101280.47;;;19.88;54.10
49397;BME280;35615;41.410;2.194;2023-11-21T01:46:49;101279.53;;;19.80;54.90
49397;BME280;35615;41.410;2.194;2023-11-21T01:49:34;101287.38;;;19.78;55.12
49397;BME280;35615;41.410;2.194;2023-11-21T01:52:20;101294.97;;;19.54;56.04
49397;BME280;35615;41.410;2.194;2023-11-21T01:55:05;101292.59;;;19.75;55.45
49397;BME280;35615;41.410;2.194;2023-11-21T02:03:19;101292.25;;;19.46;57.74
49397;BME280;35615;41.410;2.194;2023-11-21T02:05:48;101282.81;;;19.59;56.91
49397;BME280;35615;41.410;2.194;2023-11-21T02:08:15;101275.00;;;19.63;57.46
49397;BME280;35615;41.410;2.194;2023-11-21T02:10:43;101278.44;;;19.59;57.91
49397;BME280;35615;41.410;2.194;2023-11-21T02:13:10;101276.00;;;19.75;56.98
49397;BME280;35615;41.410;2.194;2023-11-21T02:15:38;101278.63;;;19.79;57.43
49397;BME280;35615;41.410;2.194;2023-11-21T02:18:05;101273.03;;;19.45;59.45
49397;BME280;35615;41.410;2.194;2023-11-21T02:20:33;101273.31;;;19.68;58.04
49397;BME280;35615;41.410;2.194;2023-11-21T02:23:04;101262.81;;;19.70;57.87
49397;BME280;35615;41.410;2.194;2023-11-21T02:25:32;101255.59;;;19.46;59.88
49397;BME280;35615;41.410;2.194;2023-11-21T02:28:02;101245.41;;;19.77;58.28
49397;BME280;35615;41.410;2.194;2023-11-21T02:30:30;101230.56;;;19.79;58.08
49397;BME280;35615;41.410;2.194;2023-11-21T02:33:01;101238.31;;;19.63;58.63
49397;BME280;35615;41.410;2.194;2023-11-21T02:35:30;101240.13;;;19.72;58.39
49397;BME280;35615;41.410;2.194;2023-11-21T02:37:59;101243.69;;;19.77;58.51
49397;BME280;35615;41.410;2.194;2023-11-21T02:40:26;101234.75;;;19.58;59.63
49397;BME280;35615;41.410;2.194;2023-11-21T02:42:54;101220.88;;;19.70;59.01
49397;BME280;35615;41.410;2.194;2023-11-21T02:45:25;101219.75;;;19.42;60.70
49397;BME280;35615;41.410;2.194;2023-11-21T02:47:54;101210.16;;;19.47;60.08
49397;BME280;35615;41.410;2.194;2023-11-21T02:50:25;101216.09;;;19.28;61.06
49397;BME280;35615;41.410;2.194;2023-11-21T02:52:56;101217.88;;;19.30;60.86
49397;BME280;35615;41.410;2.194;2023-11-21T02:55:28;101217.13;;;19.40;60.37
49397;BME280;35615;41.410;2.194;2023-11-21T02:57:55;101212.88;;;19.55;59.78
49397;BME280;35615;41.410;2.194;2023-11-21T03:00:23;101211.13;;;19.54;60.55
49397;BME280;35615;41.410;2.194;2023-11-21T03:02:54;101210.38;;;19.65;60.25
49397;BME280;35615;41.410;2.194;2023-11-21T03:05:25;101205.16;;;19.68;59.85
49397;BME280;35615;41.410;2.194;2023-11-21T03:07:52;101204.84;;;19.39;61.41
49397;BME280;35615;41.410;2.194;2023-11-21T03:10:19;101201.38;;;19.40;60.82
49397;BME280;35615;41.410;2.194;2023-11-21T03:12:47;101204.19;;;19.57;60.34
49397;BME280;35615;41.410;2.194;2023-11-21T03:15:14;101199.00;;;19.63;60.05
49397;BME280;35615;41.410;2.194;2023-11-21T03:17:42;101191.63;;;19.27;61.55
49397;BME280;35615;41.410;2.194;2023-11-21T03:20:10;101189.88;;;19.25;61.75
49397;BME280;35615;41.410;2.194;2023-11-21T03:22:39;101184.53;;;19.14;62.11
49397;BME280;35615;41.410;2.194;2023-11-21T03:25:08;101178.41;;;19.15;62.04
49397;BME280;35615;41.410;2.194;2023-11-21T03:27:38;101177.72;;;19.30;61.31
49397;BME280;35615;41.410;2.194;2023-11-21T03:30:08;101173.38;;;19.32;61.70
49397;BME280;35615;41.410;2.194;2023-11-21T03:32:36;101176.94;;;19.43;60.83
49397;BME280;35615;41.410;2.194;2023-11-21T03:35:07;101178.53;;;19.24;61.62
49397;BME280;35615;41.410;2.194;2023-11-21T03:37:34;101182.91;;;19.28;61.14
49397;BME280;35615;41.410;2.194;2023-11-21T03:40:02;101184.91;;;19.52;60.40
49397;BME280;35615;41.410;2.194;2023-11-21T03:42:31;101171.75;;;19.48;60.55
49397;BME280;35615;41.410;2.194;2023-11-21T03:44:58;101173.66;;;19.64;59.96
49397;BME280;35615;41.410;2.194;2023-11-21T03:47:27;101182.22;;;19.51;58.33
49397;BME280;35615;41.410;2.194;2023-11-21T03:49:55;101177.53;;;19.13;56.04
49397;BME280;35615;41.410;2.194;2023-11-21T03:52:23;101178.63;;;19.35;54.29
49397;BME280;35615;41.410;2.194;2023-11-21T03:54:51;101175.88;;;19.23;50.82
49397;BME280;35615;41.410;2.194;2023-11-21T03:57:21;101167.34;;;19.43;51.17
49397;BME280;35615;41.410;2.194;2023-11-21T03:59:48;101165.53;;;19.38;50.37
49397;BME280;35615;41.410;2.194;2023-11-21T04:02:24;101164.66;;;19.36;48.56
49397;BME280;35615;41.410;2.194;2023-11-21T04:05:08;101164.72;;;19.42;47.41
49397;BME280;35615;41.410;2.194;2023-11-21T04:07:54;101165.53;;;19.39;47.01
49397;BME280;35615;41.410;2.194;2023-11-21T04:10:36;101166.28;;;19.23;46.50
49397;BME280;35615;41.410;2.194;2023-11-21T04:13:23;101161.13;;;19.32;46.24
49397;BME280;35615;41.410;2.194;2023-11-21T04:18:58;101169.69;;;19.13;45.35
49397;BME280;35615;41.410;2.194;2023-11-21T04:21:28;101171.19;;;18.90;44.56
49397;BME280;35615;41.410;2.194;2023-11-21T04:24:10;101165.97;;;18.91;44.56
49397;BME280;35615;41.410;2.194;2023-11-21T04:26:46;101167.91;;;19.09;44.45
49397;BME280;35615;41.410;2.194;2023-11-21T04:29:24;101169.47;;;18.95;43.86
49397;BME280;35615;41.410;2.194;2023-11-21T04:32:06;101167.47;;;18.71;43.82
49397;BME280;35615;41.410;2.194;2023-11-21T04:34:49;101165.91;;;18.85;43.41
49397;BME280;35615;41.410;2.194;2023-11-21T04:37:33;101161.50;;;18.84;43.12
49397;BME280;35615;41.410;2.194;2023-11-21T04:40:10;101159.41;;;18.54;43.89
49397;BME280;35615;41.410;2.194;2023-11-21T04:42:53;101159.75;;;18.81;43.66
49397;BME280;35615;41.410;2.194;2023-11-21T04:45:32;101161.38;;;18.73;43.61
49397;BME280;35615;41.410;2.194;2023-11-21T04:48:28;101158.53;;;18.55;43.65
49397;BME280;35615;41.410;2.194;2023-11-21T04:51:07;101162.19;;;18.65;43.44
49397;BME280;35615;41.410;2.194;2023-11-21T04:53:55;101170.81;;;18.61;43.26
49397;BME280;35615;41.410;2.194;2023-11-21T04:56:37;101168.22;;;18.62;43.08
49397;BME280;35615;41.410;2.194;2023-11-21T04:59:14;101180.97;;;18.35;43.32
49397;BME280;35615;41.410;2.194;2023-11-21T05:01:54;101195.91;;;18.45;43.34
49397;BME280;35615;41.410;2.194;2023-11-21T05:04:32;101209.31;;;18.68;43.04
49397;BME280;35615;41.410;2.194;2023-11-21T05:07:20;101216.56;;;18.89;43.00
49397;BME280;35615;41.410;2.194;2023-11-21T05:10:08;101218.34;;;18.93;43.05
49397;BME280;35615;41.410;2.194;2023-11-21T05:12:48;101214.06;;;19.01;43.79
49397;BME280;35615;41.410;2.194;2023-11-21T05:15:37;101215.81;;;19.00;44.99
49397;BME280;35615;41.410;2.194;2023-11-21T05:18:15;101222.94;;;19.15;45.31
49397;BME280;35615;41.410;2.194;2023-11-21T05:21:06;101210.59;;;19.03;45.95
49397;BME280;35615;41.410;2.194;2023-11-21T05:23:51;101222.16;;;19.22;46.27
49397;BME280;35615;41.410;2.194;2023-11-21T05:26:28;101221.16;;;19.11;47.12
49397;BME280;35615;41.410;2.194;2023-11-21T05:29:21;101235.28;;;19.25;48.94
49397;BME280;35615;41.410;2.194;2023-11-21T05:32:06;101230.88;;;19.18;50.53
49397;BME280;35615;41.410;2.194;2023-11-21T05:34:44;101245.63;;;19.13;51.35
49397;BME280;35615;41.410;2.194;2023-11-21T05:37:32;101243.91;;;19.16;51.96
49397;BME280;35615;41.410;2.194;2023-11-21T05:40:22;101251.13;;;19.39;52.25
49397;BME280;35615;41.410;2.194;2023-11-21T05:42:58;101241.28;;;19.15;54.32
49397;BME280;35615;41.410;2.194;2023-11-21T05:45:43;101242.97;;;19.08;54.72
49397;BME280;35615;41.410;2.194;2023-11-21T05:48:43;101249.59;;;18.80;56.83
49397;BME280;35615;41.410;2.194;2023-11-21T05:51:11;101248.03;;;18.95;55.04
49397;BME280;35615;41.410;2.194;2023-11-21T05:54:09;101258.22;;;18.73;57.10
49397;BME280;35615;41.410;2.194;2023-11-21T05:59:40;101270.69;;;18.93;56.20
49397;BME280;35615;41.410;2.194;2023-11-21T06:02:15;101279.06;;;18.64;57.16
49397;BME280;35615;41.410;2.194;2023-11-21T06:05:11;101267.91;;;18.79;56.71
49397;BME280;35615;41.410;2.194;2023-11-21T06:07:54;101279.13;;;18.70;56.75
49397;BME280;35615;41.410;2.194;2023-11-21T06:10:40;101272.94;;;18.64;56.59
49397;BME280;35615;41.410;2.194;2023-11-21T06:13:22;101278.06;;;18.57;56.73
49397;BME280;35615;41.410;2.194;2023-11-21T06:16:13;101288.78;;;18.17;57.75
49397;BME280;35615;41.410;2.194;2023-11-21T06:19:06;101293.38;;;18.30;57.88
49397;BME280;35615;41.410;2.194;2023-11-21T06:21:40;101297.81;;;18.36;57.72
49397;BME280;35615;41.410;2.194;2023-11-21T06:24:25;101304.78;;;18.37;57.10
49397;BME280;35615;41.410;2.194;2023-11-21T06:27:04;101315.41;;;18.47;57.13
49397;BME280;35615;41.410;2.194;2023-11-21T06:29:54;101311.97;;;18.50;57.50
49397;BME280;35615;41.410;2.194;2023-11-21T06:32:42;101324.94;;;18.42;58.01
49397;BME280;35615;41.410;2.194;2023-11-21T06:35:37;101324.88;;;18.39;58.17
49397;BME280;35615;41.410;2.194;2023-11-21T06:38:10;101337.91;;;18.35;58.25
49397;BME280;35615;41.410;2.194;2023-11-21T06:40:53;101338.88;;;18.41;58.29
49397;BME280;35615;41.410;2.194;2023-11-21T06:43:35;101351.03;;;18.38;58.35
49397;BME280;35615;41.410;2.194;2023-11-21T06:49:10;101364.84;;;18.29;59.87
49397;BME280;35615;41.410;2.194;2023-11-21T06:51:49;101365.94;;;18.42;58.63
49397;BME280;35615;41.410;2.194;2023-11-21T06:54:32;101373.47;;;18.23;59.55
49397;BME280;35615;41.410;2.194;2023-11-21T06:57:13;101381.28;;;18.22;58.42
49397;BME280;35615;41.410;2.194;2023-11-21T06:59:45;101379.22;;;18.04;59.07
49397;BME280;35615;41.410;2.194;2023-11-21T07:02:25;101376.91;;;18.19;58.82
49397;BME280;35615;41.410;2.194;2023-11-21T07:04:59;101384.41;;;18.01;59.52
49397;BME280;35615;41.410;2.194;2023-11-21T07:07:27;101382.47;;;17.89;60.35
49397;BME280;35615;41.410;2.194;2023-11-21T07:09:57;101379.38;;;18.12;59.32
49397;BME280;35615;41.410;2.194;2023-11-21T07:12:31;101378.63;;;18.19;59.02
49397;BME280;35615;41.410;2.194;2023-11-21T07:18:26;101401.09;;;18.08;59.19
49397;BME280;35615;41.410;2.194;2023-11-21T07:20:57;101393.50;;;18.23;58.88
49397;BME280;35615;41.410;2.194;2023-11-21T07:23:28;101394.22;;;18.14;59.47
49397;BME280;35615;41.410;2.194;2023-11-21T07:29:02;101408.66;;;17.94;59.01
49397;BME280;35615;41.410;2.194;2023-11-21T07:31:36;101401.84;;;18.00;59.25
49397;BME280;35615;41.410;2.194;2023-11-21T07:38:56;101410.78;;;18.15;58.96
49397;BME280;35615;41.410;2.194;2023-11-21T07:42:16;101404.00;;;18.26;58.24
49397;BME280;35615;41.410;2.194;2023-11-21T07:45:01;101411.78;;;18.21;58.78
49397;BME280;35615;41.410;2.194;2023-11-21T07:47:39;101403.34;;;18.38;57.78
49397;BME280;35615;41.410;2.194;2023-11-21T07:50:10;101396.34;;;18.37;58.06
49397;BME280;35615;41.410;2.194;2023-11-21T07:52:44;101406.94;;;18.43;57.58
49397;BME280;35615;41.410;2.194;2023-11-21T07:55:22;101404.16;;;18.34;57.07
49397;BME280;35615;41.410;2.194;2023-11-21T07:57:58;101408.66;;;18.41;56.65
49397;BME280;35615;41.410;2.194;2023-11-21T08:00:31;101414.88;;;18.50;56.81
49397;BME280;35615;41.410;2.194;2023-11-21T08:03:15;101404.53;;;18.56;56.99
49397;BME280;35615;41.410;2.194;2023-11-21T08:05:56;101407.09;;;18.53;56.26
49397;BME280;35615;41.410;2.194;2023-11-21T08:11:24;101407.00;;;18.49;55.86
49397;BME280;35615;41.410;2.194;2023-11-21T08:14:03;101415.66;;;18.43;55.60
49397;BME280;35615;41.410;2.194;2023-11-21T08:16:43;101425.13;;;18.37;55.29
49397;BME280;35615;41.410;2.194;2023-11-21T08:19:19;101433.19;;;18.49;54.82
49397;BME280;35615;41.410;2.194;2023-11-21T08:21:49;101431.47;;;18.51;55.20
49397;BME280;35615;41.410;2.194;2023-11-21T08:27:28;101416.63;;;18.50;55.36
49397;BME280;35615;41.410;2.194;2023-11-21T08:30:16;101410.44;;;18.43;54.71
49397;BME280;35615;41.410;2.194;2023-11-21T08:33:11;101420.78;;;18.39;55.07
49397;BME280;35615;41.410;2.194;2023-11-21T08:35:45;101429.97;;;18.15;55.92
49397;BME280;35615;41.410;2.194;2023-11-21T08:38:27;101438.41;;;17.99;56.10
49397;BME280;35615;41.410;2.194;2023-11-21T08:41:17;101433.94;;;17.93;55.70
49397;BME280;35615;41.410;2.194;2023-11-21T08:43:55;101423.00;;;18.16;55.40
49397;BME280;35615;41.410;2.194;2023-11-21T08:46:32;101413.09;;;17.96;55.39
49397;BME280;35615;41.410;2.194;2023-11-21T08:49:06;101413.56;;;18.24;55.02
49397;BME280;35615;41.410;2.194;2023-11-21T08:51:56;101419.53;;;18.17;54.67
49397;BME280;35615;41.410;2.194;2023-11-21T08:54:45;101420.84;;;18.40;54.38
49397;BME280;35615;41.410;2.194;2023-11-21T08:57:29;101412.59;;;18.69;54.05
49397;BME280;35615;41.410;2.194;2023-11-21T09:00:16;101426.59;;;18.72;54.05
49397;BME280;35615;41.410;2.194;2023-11-21T09:02:48;101432.78;;;18.74;53.73
49397;BME280;35615;41.410;2.194;2023-11-21T09:05:31;101427.44;;;18.70;54.47
49397;BME280;35615;41.410;2.194;2023-11-21T09:08:24;101430.94;;;18.70;53.75
49397;BME280;35615;41.410;2.194;2023-11-21T09:11:03;101426.59;;;18.71;53.61
49397;BME280;35615;41.410;2.194;2023-11-21T09:13:56;101434.06;;;18.49;54.24
49397;BME280;35615;41.410;2.194;2023-11-21T09:16:36;101437.34;;;18.88;53.55
49397;BME280;35615;41.410;2.194;2023-11-21T09:19:17;101440.75;;;18.83;53.39
49397;BME280;35615;41.410;2.194;2023-11-21T09:21:57;101436.44;;;18.85;53.55
49397;BME280;35615;41.410;2.194;2023-11-21T09:24:42;101426.91;;;18.91;53.39
49397;BME280;35615;41.410;2.194;2023-11-21T09:27:15;101430.22;;;18.80;53.97
49397;BME280;35615;41.410;2.194;2023-11-21T09:29:49;101432.00;;;18.81;53.88
49397;BME280;35615;41.410;2.194;2023-11-21T09:32:29;101438.50;;;18.53;54.03
49397;BME280;35615;41.410;2.194;2023-11-21T09:35:18;101431.78;;;18.68;53.82
49397;BME280;35615;41.410;2.194;2023-11-21T09:37:52;101430.81;;;18.63;53.76
49397;BME280;35615;41.410;2.194;2023-11-21T09:40:50;101431.34;;;18.43;54.09
49397;BME280;35615;41.410;2.194;2023-11-21T09:43:33;101423.47;;;18.40;54.20
49397;BME280;35615;41.410;2.194;2023-11-21T09:46:20;101416.69;;;18.03;54.55
49397;BME280;35615;41.410;2.194;2023-11-21T09:49:31;101417.22;;;18.32;54.19
49397;BME280;35615;41.410;2.194;2023-11-21T09:52:22;101417.72;;;19.20;52.99
49397;BME280;35615;41.410;2.194;2023-11-21T09:54:55;101415.63;;;19.60;51.33
49397;BME280;35615;41.410;2.194;2023-11-21T09:57:33;101406.75;;;20.32;49.52
49397;BME280;35615;41.410;2.194;2023-11-21T10:00:05;101395.63;;;20.57;47.08
49397;BME280;35615;41.410;2.194;2023-11-21T10:02:42;101398.47;;;20.86;45.87
49397;BME280;35615;41.410;2.194;2023-11-21T10:05:27;101397.84;;;21.35;44.62
49397;BME280;35615;41.410;2.194;2023-11-21T10:08:19;101393.59;;;21.69;42.69
49397;BME280;35615;41.410;2.194;2023-11-21T10:13:39;101391.97;;;22.29;41.29
49397;BME280;35615;41.410;2.194;2023-11-21T10:16:16;101391.09;;;22.07;39.20
49397;BME280;35615;41.410;2.194;2023-11-21T10:19:15;101383.19;;;22.47;38.85
49397;BME280;35615;41.410;2.194;2023-11-21T10:21:53;101398.09;;;22.75;37.65
49397;BME280;35615;41.410;2.194;2023-11-21T10:24:30;101401.53;;;23.18;37.70
49397;BME280;35615;41.410;2.194;2023-11-21T10:27:11;101396.09;;;23.64;37.74
49397;BME280;35615;41.410;2.194;2023-11-21T10:29:47;101400.69;;;22.94;36.49
49397;BME280;35615;41.410;2.194;2023-11-21T10:32:28;101390.00;;;23.44;36.06
49397;BME280;35615;41.410;2.194;2023-11-21T10:35:07;101376.47;;;24.03;35.48
49397;BME280;35615;41.410;2.194;2023-11-21T10:38:03;101368.38;;;24.28;34.15
49397;BME280;35615;41.410;2.194;2023-11-21T10:40:39;101359.25;;;24.64;34.92
49397;BME280;35615;41.410;2.194;2023-11-21T10:43:13;101360.25;;;24.49;33.81
49397;BME280;35615;41.410;2.194;2023-11-21T10:45:59;101363.78;;;24.53;33.92
49397;BME280;35615;41.410;2.194;2023-11-21T10:48:37;101362.41;;;24.98;32.78
49397;BME280;35615;41.410;2.194;2023-11-21T10:51:13;101359.97;;;24.78;32.19
49397;BME280;35615;41.410;2.194;2023-11-21T10:53:52;101360.00;;;25.49;32.95
49397;BME280;35615;41.410;2.194;2023-11-21T10:56:32;101343.00;;;25.70;32.03
49397;BME280;35615;41.410;2.194;2023-11-21T10:59:09;101342.19;;;26.20;30.39
49397;BME280;35615;41.410;2.194;2023-11-21T11:02:00;101337.84;;;26.67;29.79
49397;BME280;35615;41.410;2.194;2023-11-21T11:04:36;101338.88;;;27.05;30.63
49397;BME280;35615;41.410;2.194;2023-11-21T11:07:08;101335.66;;;26.89;30.74
49397;BME280;35615;41.410;2.194;2023-11-21T11:09:50;101327.50;;;27.41;30.15
49397;BME280;35615;41.410;2.194;2023-11-21T11:12:30;101332.91;;;27.77;29.17
49397;BME280;35615;41.410;2.194;2023-11-21T11:15:04;101332.19;;;28.74;28.73
49397;BME280;35615;41.410;2.194;2023-11-21T11:17:39;101329.44;;;28.77;27.28
49397;BME280;35615;41.410;2.194;2023-11-21T11:20:15;101320.56;;;29.39;27.97
49397;BME280;35615;41.410;2.194;2023-11-21T11:26:18;101296.03;;;28.67;25.04
49397;BME280;35615;41.410;2.194;2023-11-21T11:29:10;101284.50;;;29.85;24.20
49397;BME280;35615;41.410;2.194;2023-11-21T11:38:33;101282.25;;;29.72;23.23
49397;BME280;35615;41.410;2.194;2023-11-21T11:41:29;101279.69;;;29.96;21.01
49397;BME280;35615;41.410;2.194;2023-11-21T11:44:01;101270.25;;;30.87;22.70
49397;BME280;35615;41.410;2.194;2023-11-21T11:46:51;101267.88;;;31.26;19.73
49397;BME280;35615;41.410;2.194;2023-11-21T11:50:04;101255.66;;;31.19;19.63
49397;BME280;35615;41.410;2.194;2023-11-21T11:56:27;101247.97;;;31.33;19.16
49397;BME280;35615;41.410;2.194;2023-11-21T11:59:09;101247.38;;;31.48;20.71
49397;BME280;35615;41.410;2.194;2023-11-21T12:01:47;101235.63;;;31.52;18.99
49397;BME280;35615;41.410;2.194;2023-11-21T12:04:29;101241.66;;;32.00;19.43
49397;BME280;35615;41.410;2.194;2023-11-21T12:07:42;101226.72;;;32.55;18.45
49397;BME280;35615;41.410;2.194;2023-11-21T12:10:39;101233.47;;;32.04;18.75
49397;BME280;35615;41.410;2.194;2023-11-21T12:13:15;101235.00;;;32.30;20.27
49397;BME280;35615;41.410;2.194;2023-11-21T12:16:01;101227.22;;;33.03;19.02
49397;BME280;35615;41.410;2.194;2023-11-21T12:18:56;101221.69;;;32.08;18.80
49397;BME280;35615;41.410;2.194;2023-11-21T12:21:43;101210.25;;;32.64;18.00
49397;BME280;35615;41.410;2.194;2023-11-21T12:24:23;101192.72;;;33.33;17.62
49397;BME280;35615;41.410;2.194;2023-11-21T12:26:59;101199.78;;;32.79;17.90
49397;BME280;35615;41.410;2.194;2023-11-21T12:29:33;101213.44;;;31.72;19.43
49397;BME280;35615;41.410;2.194;2023-11-21T12:32:27;101212.81;;;31.66;19.20
49397;BME280;35615;41.410;2.194;2023-11-21T12:35:19;101215.00;;;32.19;18.60
49397;BME280;35615;41.410;2.194;2023-11-21T12:38:15;101217.78;;;32.75;18.02
49397;BME280;35615;41.410;2.194;2023-11-21T12:41:18;101214.91;;;33.17;18.12
49397;BME280;35615;41.410;2.194;2023-11-21T12:44:13;101210.59;;;33.68;17.51
49397;BME280;35615;41.410;2.194;2023-11-21T12:47:06;101194.03;;;33.24;17.25
49397;BME280;35615;41.410;2.194;2023-11-21T12:53:46;101174.47;;;33.58;17.05
49397;BME280;35615;41.410;2.194;2023-11-21T12:56:54;101175.75;;;34.03;16.73
49397;BME280;35615;41.410;2.194;2023-11-21T12:59:34;101174.66;;;33.72;21.71
49397;BME280;35615;41.410;2.194;2023-11-21T13:02:21;101177.00;;;33.78;20.12
49397;BME280;35615;41.410;2.194;2023-11-21T13:05:38;101178.22;;;32.63;21.44
49397;BME280;35615;41.410;2.194;2023-11-21T13:08:34;101178.09;;;31.66;19.73
49397;BME280;35615;41.410;2.194;2023-11-21T13:11:46;101173.66;;;31.87;18.97
49397;BME280;35615;41.410;2.194;2023-11-21T13:14:41;101159.00;;;32.55;18.22
49397;BME280;35615;41.410;2.194;2023-11-21T13:17:53;101159.03;;;32.92;17.93
49397;BME280;35615;41.410;2.194;2023-11-21T13:20:55;101149.13;;;33.48;17.66
49397;BME280;35615;41.410;2.194;2023-11-21T13:24:14;101149.03;;;33.67;17.61
49397;BME280;35615;41.410;2.194;2023-11-21T13:27:23;101149.91;;;33.85;17.56
49397;BME280;35615;41.410;2.194;2023-11-21T13:30:14;101142.09;;;33.97;17.44
49397;BME280;35615;41.410;2.194;2023-11-21T13:33:21;101130.13;;;34.04;17.10
49397;BME280;35615;41.410;2.194;2023-11-21T13:36:16;101133.63;;;33.37;17.23
49397;BME280;35615;41.410;2.194;2023-11-21T13:38:54;101128.22;;;32.84;17.82
49397;BME280;35615;41.410;2.194;2023-11-21T13:41:46;101121.81;;;33.22;17.15
49397;BME280;35615;41.410;2.194;2023-11-21T13:44:56;101114.88;;;33.37;17.35
49397;BME280;35615;41.410;2.194;2023-11-21T13:48:00;101125.69;;;31.84;18.47
49397;BME280;35615;41.410;2.194;2023-11-21T13:50:55;101111.47;;;31.20;22.51
49397;BME280;35615;41.410;2.194;2023-11-21T13:57:44;101115.72;;;28.80;25.30
49397;BME280;35615;41.410;2.194;2023-11-21T14:00:23;101109.41;;;28.84;25.05
49397;BME280;35615;41.410;2.194;2023-11-21T14:10:39;101111.81;;;26.19;27.45
49397;BME280;35615;41.410;2.194;2023-11-21T14:13:43;101104.66;;;26.66;27.32
49397;BME280;35615;41.410;2.194;2023-11-21T14:16:53;101117.25;;;26.11;27.46
49397;BME280;35615;41.410;2.194;2023-11-21T14:20:19;101112.94;;;26.89;26.69
49397;BME280;35615;41.410;2.194;2023-11-21T14:26:59;101117.84;;;27.07;26.41
49397;BME280;35615;41.410;2.194;2023-11-21T14:30:03;101124.88;;;27.08;26.00
49397;BME280;35615;41.410;2.194;2023-11-21T14:34:03;101123.66;;;25.52;27.81
49397;BME280;35615;41.410;2.194;2023-11-21T14:37:03;101118.69;;;24.75;28.69
49397;BME280;35615;41.410;2.194;2023-11-21T14:39:42;101125.47;;;25.48;28.14
49397;BME280;35615;41.410;2.194;2023-11-21T14:42:20;101129.44;;;24.62;29.28
49397;BME280;35615;41.410;2.194;2023-11-21T14:45:16;101127.94;;;25.57;28.41
49397;BME280;35615;41.410;2.194;2023-11-21T14:48:16;101113.69;;;25.16;28.15
49397;BME280;35615;41.410;2.194;2023-11-21T14:51:16;101114.00;;;25.47;27.98
49397;BME280;35615;41.410;2.194;2023-11-21T14:54:07;101115.56;;;25.59;27.86
49397;BME280;35615;41.410;2.194;2023-11-21T14:56:40;101123.66;;;24.27;29.50
49397;BME280;35615;41.410;2.194;2023-11-21T14:59:26;101117.94;;;24.65;29.34
49397;BME280;35615;41.410;2.194;2023-11-21T15:02:31;101121.81;;;25.00;28.56
49397;BME280;35615;41.410;2.194;2023-11-21T15:05:49;101122.16;;;24.08;29.61
49397;BME280;35615;41.410;2.194;2023-11-21T15:08:26;101119.97;;;23.66;30.30
49397;BME280;35615;41.410;2.194;2023-11-21T15:14:50;101115.41;;;23.84;30.40
49397;BME280;35615;41.410;2.194;2023-11-21T15:17:25;101113.69;;;23.76;30.38